Time;durP1;ratioP1;P1;durP2;ratioP2;P2;SDS_P1;SDS_P2;PMS_P1;PMS_P2;Temp;Humidity;BMP_temperature;BMP_pressure;BME280_temperature;BME280_humidity;BME280_pressure;Samples;Min_cycle;Max_cycle;Signal;HPM_P1;HPM_P2
2023/06/16 00:00:50;;;;;;;4.80;3.17;;;;;;;18.70;75.96;-18530.34;4992162;28;20050;-78
2023/06/16 00:03:16;;;;;;;7.88;3.25;;;;;;;18.64;77.15;-18528.72;5002476;28;20516;-77
2023/06/16 00:05:46;;;;;;;5.05;3.45;;;;;;;18.59;77.49;-18527.34;4990660;28;20194;-77
2023/06/16 00:08:12;;;;;;;6.68;3.70;;;;;;;18.46;78.25;-18523.81;4999130;28;20038;-77
2023/06/16 00:10:37;;;;;;;6.53;3.28;;;;;;;18.52;78.28;-18525.31;5004029;28;20157;-80
2023/06/16 00:13:02;;;;;;;6.00;3.50;;;;;;;18.49;78.10;-18524.75;5004855;28;20133;-77
2023/06/16 00:15:28;;;;;;;7.97;3.35;;;;;;;18.47;78.23;-18524.22;4999358;28;20049;-79
2023/06/16 00:17:56;;;;;;;6.45;3.25;;;;;;;18.38;79.10;-18521.75;5000932;28;20056;-79
2023/06/16 00:20:22;;;;;;;4.40;3.15;;;;;;;18.39;80.03;-18521.91;4994646;28;20062;-80
2023/06/16 00:22:47;;;;;;;6.50;3.50;;;;;;;18.22;81.57;-18517.53;5002325;28;20401;-80
2023/06/16 00:25:22;;;;;;;6.50;3.42;;;;;;;18.12;82.97;-18514.81;4999726;28;20038;-80
2023/06/16 00:27:47;;;;;;;6.82;3.97;;;;;;;18.06;83.53;-18513.03;5010553;28;20086;-80
2023/06/16 00:30:13;;;;;;;6.38;3.45;;;;;;;18.10;81.42;-18514.25;5005396;28;20050;-78
2023/06/16 00:32:38;;;;;;;6.95;3.78;;;;;;;17.94;84.19;-18510.03;4994595;28;20045;-77
2023/06/16 00:35:04;;;;;;;5.43;3.55;;;;;;;18.01;83.59;-18511.81;4990100;28;20064;-78
2023/06/16 00:37:30;;;;;;;5.10;3.13;;;;;;;17.94;84.22;-18509.88;4991481;28;20153;-78
2023/06/16 00:39:55;;;;;;;5.60;3.50;;;;;;;17.88;85.49;-18508.25;4998945;28;20117;-77
2023/06/16 00:42:20;;;;;;;4.97;3.58;;;;;;;17.93;84.51;-18509.63;4991155;28;20053;-77
2023/06/16 00:44:46;;;;;;;5.65;3.60;;;;;;;17.90;86.89;-18508.81;4997052;28;20530;-77
2023/06/16 00:47:11;;;;;;;6.53;3.55;;;;;;;17.80;86.94;-18506.22;5001508;28;20042;-77
2023/06/16 00:49:37;;;;;;;5.90;3.63;;;;;;;17.75;87.20;-18504.97;4995430;28;20058;-79
2023/06/16 00:52:06;;;;;;;8.82;3.95;;;;;;;17.77;87.15;-18505.38;4996280;28;20038;-77
2023/06/16 00:54:32;;;;;;;5.15;3.55;;;;;;;17.63;88.85;-18501.56;4995425;28;20045;-77
2023/06/16 00:56:58;;;;;;;6.25;4.15;;;;;;;17.53;89.78;-18498.97;5004733;28;20030;-78
2023/06/16 00:59:26;;;;;;;9.25;3.60;;;;;;;17.54;90.53;-18499.38;5002671;28;20035;-78
2023/06/16 01:01:52;;;;;;;5.68;3.67;;;;;;;17.62;90.44;-18501.44;4999926;28;20064;-79
2023/06/16 01:04:20;;;;;;;5.93;4.15;;;;;;;17.54;91.23;-18499.38;4995794;28;20038;-79
2023/06/16 01:06:57;;;;;;;7.97;4.88;;;;;;;17.55;89.33;-18499.50;4972127;28;20039;-78
2023/06/16 01:09:37;;;;;;;5.53;4.30;;;;;;;17.64;89.71;-18501.84;4991901;28;20532;-78
2023/06/16 01:12:15;;;;;;;8.43;5.20;;;;;;;17.46;89.60;-18497.06;4998672;28;20042;-79
2023/06/16 01:14:49;;;;;;;6.60;4.82;;;;;;;17.43;90.51;-18496.25;4992986;28;20049;-79
2023/06/16 01:17:15;;;;;;;7.25;5.03;;;;;;;17.40;92.33;-18495.56;4990118;28;20038;-79
2023/06/16 01:19:53;;;;;;;6.53;4.85;;;;;;;17.37;92.91;-18494.88;4990150;28;20038;-78
2023/06/16 01:22:50;;;;;;;7.25;4.82;;;;;;;17.21;92.62;-18490.50;4996170;28;20065;-78
2023/06/16 01:25:22;;;;;;;8.32;5.15;;;;;;;17.12;93.88;-18488.06;4992129;28;20039;-79
2023/06/16 01:27:51;;;;;;;10.07;4.80;;;;;;;17.20;93.24;-18490.09;4983275;28;20497;-79
2023/06/16 01:30:19;;;;;;;6.50;5.00;;;;;;;17.17;93.83;-18489.41;4989436;28;20039;-78
2023/06/16 01:32:47;;;;;;;7.93;5.07;;;;;;;17.16;94.90;-18489.13;5003726;28;20049;-79
2023/06/16 01:35:12;;;;;;;6.15;5.05;;;;;;;17.03;95.71;-18485.59;4997061;28;20041;-79
2023/06/16 01:37:39;;;;;;;8.65;5.40;;;;;;;16.88;97.29;-18481.75;4996798;23;20050;-83
2023/06/16 01:40:06;;;;;;;8.75;5.55;;;;;;;16.87;97.15;-18481.50;5010507;28;20076;-81
2023/06/16 01:42:32;;;;;;;8.07;5.30;;;;;;;16.85;98.05;-18480.94;5010705;28;20416;-81
2023/06/16 01:44:58;;;;;;;8.15;6.35;;;;;;;16.68;99.20;-18476.28;5010017;28;20296;-83
2023/06/16 01:47:24;;;;;;;8.50;5.50;;;;;;;16.50;100.00;-18471.53;5012397;28;20034;-83
2023/06/16 01:49:50;;;;;;;8.90;5.85;;;;;;;16.38;100.00;-18468.38;5004770;28;20450;-82
2023/06/16 01:52:16;;;;;;;8.48;5.93;;;;;;;16.37;100.00;-18468.09;5005672;28;20318;-83
2023/06/16 01:54:41;;;;;;;8.48;5.95;;;;;;;16.21;100.00;-18463.72;5005943;28;20042;-81
2023/06/16 01:57:07;;;;;;;8.65;6.10;;;;;;;16.22;100.00;-18464.00;5006211;28;20056;-82
2023/06/16 01:59:36;;;;;;;6.80;5.45;;;;;;;16.01;100.00;-18458.53;5018755;28;20034;-83
2023/06/16 02:02:09;;;;;;;7.65;5.65;;;;;;;16.12;100.00;-18461.28;5008326;28;20041;-83
2023/06/16 02:04:35;;;;;;;6.32;5.03;;;;;;;16.14;100.00;-18461.81;5008658;28;20042;-81
2023/06/16 02:07:07;;;;;;;9.88;5.15;;;;;;;16.12;100.00;-18461.41;5009291;28;20048;-82
2023/06/16 02:09:35;;;;;;;9.43;5.82;;;;;;;16.12;100.00;-18461.41;5007097;28;20038;-83
2023/06/16 02:12:01;;;;;;;8.13;5.57;;;;;;;16.02;100.00;-18458.81;5010188;28;20041;-83
2023/06/16 02:14:28;;;;;;;9.52;5.88;;;;;;;15.98;100.00;-18457.72;5009304;28;20420;-82
2023/06/16 02:16:53;;;;;;;8.85;5.65;;;;;;;15.92;100.00;-18456.06;5006976;28;20038;-81
2023/06/16 02:19:18;;;;;;;10.13;5.80;;;;;;;15.97;100.00;-18457.44;5006902;28;20038;-82
2023/06/16 02:21:44;;;;;;;7.78;5.40;;;;;;;15.99;100.00;-18458.00;5007066;28;20268;-82
2023/06/16 02:24:10;;;;;;;9.98;5.53;;;;;;;15.85;100.00;-18454.16;5009134;28;20040;-83
2023/06/16 02:26:37;;;;;;;8.23;5.57;;;;;;;15.78;100.00;-18452.25;5003217;28;20121;-84
2023/06/16 02:29:03;;;;;;;8.80;6.20;;;;;;;15.74;100.00;-18451.28;5007973;28;20042;-81
2023/06/16 02:31:28;;;;;;;8.45;5.97;;;;;;;15.79;100.00;-18452.53;5010105;28;20045;-83
2023/06/16 02:33:55;;;;;;;8.05;5.95;;;;;;;15.81;100.00;-18453.06;5007753;28;20505;-82
2023/06/16 02:36:21;;;;;;;9.02;6.07;;;;;;;15.69;100.00;-18449.78;5008611;28;20117;-81
2023/06/16 02:38:46;;;;;;;8.43;6.05;;;;;;;15.72;100.00;-18450.75;5005988;28;20508;-82
2023/06/16 02:41:12;;;;;;;7.95;6.10;;;;;;;15.65;100.00;-18448.69;5008717;28;20034;-83
2023/06/16 02:43:37;;;;;;;8.13;5.78;;;;;;;15.63;100.00;-18448.13;5006871;28;20124;-82
2023/06/16 02:46:03;;;;;;;9.02;5.68;;;;;;;15.60;100.00;-18447.31;5008572;28;20120;-81
2023/06/16 02:48:28;;;;;;;10.07;6.15;;;;;;;15.55;100.00;-18446.22;5006853;28;20034;-84
2023/06/16 02:50:54;;;;;;;8.30;6.25;;;;;;;15.68;100.00;-18449.50;5006768;28;20052;-84
2023/06/16 02:53:20;;;;;;;9.95;6.53;;;;;;;15.65;100.00;-18448.69;5008316;28;20061;-81
2023/06/16 02:55:48;;;;;;;10.13;6.18;;;;;;;15.52;100.00;-18445.41;5007406;28;20062;-82
2023/06/16 02:58:14;;;;;;;9.32;6.63;;;;;;;15.52;100.00;-18445.28;5005701;28;20149;-84
2023/06/16 03:00:39;;;;;;;8.43;6.78;;;;;;;15.50;100.00;-18444.72;5006866;28;20130;-81
2023/06/16 03:03:07;;;;;;;10.02;6.57;;;;;;;15.35;100.00;-18440.75;5007718;28;20026;-83
2023/06/16 03:05:34;;;;;;;10.82;6.93;;;;;;;15.40;100.00;-18442.13;5008051;28;20058;-83
2023/06/16 03:07:59;;;;;;;9.45;6.20;;;;;;;15.29;100.00;-18439.13;5006875;28;20164;-82
2023/06/16 03:10:24;;;;;;;9.63;6.90;;;;;;;15.25;100.00;-18438.16;5005741;28;20105;-85
2023/06/16 03:12:50;;;;;;;8.30;6.15;;;;;;;15.23;100.00;-18437.47;5005973;28;20142;-82
2023/06/16 03:15:15;;;;;;;11.70;6.97;;;;;;;15.16;100.00;-18435.56;5008997;28;20045;-81
2023/06/16 03:17:40;;;;;;;10.18;6.25;;;;;;;15.28;100.00;-18438.84;5005233;28;20042;-84
2023/06/16 03:20:07;;;;;;;8.50;6.25;;;;;;;15.31;100.00;-18439.66;5005694;28;20471;-82
2023/06/16 03:22:32;;;;;;;13.15;6.65;;;;;;;15.34;100.00;-18440.47;5006161;28;20076;-81
2023/06/16 03:25:02;;;;;;;9.48;5.90;;;;;;;15.32;100.00;-18440.06;5004487;28;20041;-80
2023/06/16 03:27:29;;;;;;;8.60;6.18;;;;;;;15.15;100.00;-18435.41;5004999;28;20485;-82
2023/06/16 03:29:55;;;;;;;8.27;5.97;;;;;;;15.30;100.00;-18439.38;5004205;28;20501;-80
2023/06/16 03:32:20;;;;;;;10.98;6.65;;;;;;;15.38;100.00;-18441.56;5001798;28;20045;-83
2023/06/16 03:34:46;;;;;;;10.40;6.25;;;;;;;15.42;100.00;-18442.53;5019218;28;20038;-82
2023/06/16 03:37:11;;;;;;;9.07;5.97;;;;;;;15.35;100.00;-18440.75;5003339;28;20026;-82
2023/06/16 03:39:37;;;;;;;10.15;6.85;;;;;;;15.44;100.00;-18443.06;5000813;28;20123;-83
2023/06/16 03:42:02;;;;;;;9.75;6.35;;;;;;;15.59;100.00;-18447.19;5000703;28;20560;-83
2023/06/16 03:44:28;;;;;;;9.05;6.60;;;;;;;15.60;100.00;-18447.47;5000284;28;20046;-82
2023/06/16 03:46:53;;;;;;;11.02;6.70;;;;;;;15.64;100.00;-18448.41;5003973;28;20034;-81
2023/06/16 03:49:18;;;;;;;12.23;7.28;;;;;;;15.81;100.00;-18453.06;5002595;28;20038;-81
2023/06/16 03:51:44;;;;;;;10.45;6.40;;;;;;;15.85;100.00;-18454.16;5001464;28;20131;-82
2023/06/16 03:54:11;;;;;;;8.88;6.78;;;;;;;15.86;100.00;-18454.44;5013004;28;20236;-85
2023/06/16 03:56:37;;;;;;;11.73;7.22;;;;;;;15.91;100.00;-18455.81;5010864;28;20095;-85
2023/06/16 03:59:02;;;;;;;9.07;6.82;;;;;;;15.92;100.00;-18456.06;5006033;28;20046;-83
2023/06/16 04:01:28;;;;;;;10.20;6.65;;;;;;;15.97;100.00;-18457.31;5001592;28;20039;-81
2023/06/16 04:03:53;;;;;;;9.52;6.97;;;;;;;16.07;100.00;-18459.91;5007944;28;20049;-84
2023/06/16 04:06:18;;;;;;;11.00;7.40;;;;;;;16.18;100.00;-18462.91;5006232;28;20065;-85
2023/06/16 04:08:46;;;;;;;11.52;7.30;;;;;;;16.29;100.00;-18465.91;5003703;28;20208;-81
2023/06/16 04:11:12;;;;;;;9.30;7.32;;;;;;;16.30;100.00;-18466.19;5005118;28;20033;-81
2023/06/16 04:13:37;;;;;;;13.25;7.43;;;;;;;16.05;100.00;-18459.50;5007112;28;20542;-83
2023/06/16 04:16:03;;;;;;;10.60;7.75;;;;;;;16.12;100.00;-18461.28;5004838;28;20496;-85
2023/06/16 04:18:28;;;;;;;10.75;7.72;;;;;;;16.19;100.00;-18463.19;5004790;28;20110;-84
2023/06/16 04:20:54;;;;;;;11.82;7.93;;;;;;;16.16;100.00;-18462.50;5019159;23;20060;-83
2023/06/16 04:23:20;;;;;;;11.85;7.90;;;;;;;16.12;100.00;-18461.28;5023551;28;20051;-77
2023/06/16 04:25:45;;;;;;;11.90;6.95;;;;;;;15.98;100.00;-18457.72;5021791;28;20038;-80
2023/06/16 04:28:13;;;;;;;12.25;7.03;;;;;;;15.90;100.00;-18455.53;5021696;28;20045;-79
2023/06/16 04:30:41;;;;;;;11.23;7.45;;;;;;;16.07;100.00;-18459.91;5022301;28;20033;-79
2023/06/16 04:33:06;;;;;;;9.43;7.20;;;;;;;16.28;100.00;-18465.63;5020638;28;20051;-80
2023/06/16 04:35:34;;;;;;;11.75;7.35;;;;;;;16.27;100.00;-18465.22;5020261;28;20033;-79
2023/06/16 04:37:59;;;;;;;10.73;7.45;;;;;;;16.44;100.00;-18470.00;5024745;28;20129;-77
2023/06/16 04:40:26;;;;;;;10.50;7.50;;;;;;;16.63;100.00;-18474.94;5023644;28;20128;-76
2023/06/16 04:42:52;;;;;;;11.00;7.65;;;;;;;16.95;100.00;-18483.41;5016458;28;20490;-77
2023/06/16 04:45:17;;;;;;;10.93;7.65;;;;;;;17.14;100.00;-18488.72;5022414;28;20040;-77
2023/06/16 04:47:44;;;;;;;10.70;7.65;;;;;;;17.35;100.00;-18494.19;5022757;28;20045;-78
2023/06/16 04:50:10;;;;;;;13.77;7.72;;;;;;;17.49;100.00;-18498.03;5024886;28;20048;-78
2023/06/16 04:52:39;;;;;;;9.90;7.63;;;;;;;17.53;100.00;-18498.97;5024777;28;20030;-77
2023/06/16 04:55:06;;;;;;;11.57;7.68;;;;;;;17.67;100.00;-18502.78;5020519;28;20033;-78
2023/06/16 04:57:32;;;;;;;12.60;7.60;;;;;;;17.56;100.00;-18499.94;5025837;28;20033;-77
2023/06/16 04:59:58;;;;;;;9.27;7.57;;;;;;;17.70;100.00;-18503.47;5030292;28;20124;-78
2023/06/16 05:02:24;;;;;;;10.48;7.90;;;;;;;17.69;100.00;-18503.34;5030936;28;20037;-78
2023/06/16 05:04:50;;;;;;;10.75;8.10;;;;;;;17.62;100.00;-18501.44;5028808;28;20041;-78
2023/06/16 05:07:15;;;;;;;10.48;7.78;;;;;;;17.79;100.00;-18505.94;5031127;28;20124;-78
2023/06/16 05:09:41;;;;;;;13.70;8.70;;;;;;;17.99;100.00;-18511.41;5028448;28;20492;-78
2023/06/16 05:12:07;;;;;;;12.50;7.97;;;;;;;18.00;100.00;-18511.66;5026943;28;20485;-77
2023/06/16 05:14:33;;;;;;;10.43;8.27;;;;;;;18.08;100.00;-18513.56;5024321;28;20077;-78
2023/06/16 05:16:58;;;;;;;10.63;8.13;;;;;;;18.22;100.00;-18517.53;5028658;28;20670;-77
2023/06/16 05:19:24;;;;;;;11.05;7.65;;;;;;;18.42;98.28;-18522.84;5026236;28;20087;-78
2023/06/16 05:21:49;;;;;;;10.75;7.70;;;;;;;18.54;96.43;-18525.97;5030047;28;20049;-78
2023/06/16 05:24:15;;;;;;;11.40;8.77;;;;;;;18.72;95.71;-18530.88;5028372;28;20048;-77
2023/06/16 05:26:41;;;;;;;13.70;8.90;;;;;;;18.84;91.95;-18534.03;5025601;28;20073;-78
2023/06/16 05:29:06;;;;;;;12.38;8.48;;;;;;;18.81;93.28;-18533.06;5027585;28;20041;-78
2023/06/16 05:31:33;;;;;;;13.13;8.05;;;;;;;18.97;92.26;-18537.31;5025759;28;20550;-81
2023/06/16 05:33:58;;;;;;;12.32;8.38;;;;;;;19.13;90.98;-18541.81;5025434;28;20037;-80
2023/06/16 05:36:26;;;;;;;10.70;7.72;;;;;;;18.91;92.15;-18535.81;5025668;28;20156;-80
2023/06/16 05:38:52;;;;;;;10.25;7.60;;;;;;;18.97;92.28;-18537.31;5027104;28;20136;-77
2023/06/16 05:41:17;;;;;;;9.60;7.97;;;;;;;19.07;90.69;-18540.16;5026596;28;20116;-77
2023/06/16 05:43:43;;;;;;;11.07;8.45;;;;;;;19.42;90.77;-18549.44;5026851;28;20045;-77
2023/06/16 05:46:08;;;;;;;10.90;7.50;;;;;;;19.39;89.66;-18548.59;5028526;28;20049;-78
2023/06/16 05:48:33;;;;;;;9.32;7.40;;;;;;;19.66;84.62;-18555.69;5026093;28;20136;-81
2023/06/16 05:50:59;;;;;;;11.32;7.70;;;;;;;19.59;84.90;-18554.06;5026038;28;20048;-78
2023/06/16 05:53:25;;;;;;;14.00;8.43;;;;;;;19.49;84.91;-18551.19;5025293;28;20041;-78
2023/06/16 05:55:50;;;;;;;11.93;8.40;;;;;;;19.58;86.20;-18553.78;5025347;28;20044;-78
2023/06/16 05:58:15;;;;;;;11.70;7.57;;;;;;;19.54;86.28;-18552.56;5026661;28;20072;-77
2023/06/16 06:00:41;;;;;;;11.65;7.90;;;;;;;19.67;83.33;-18555.97;5026978;28;20041;-80
2023/06/16 06:03:06;;;;;;;11.48;6.88;;;;;;;19.68;82.20;-18556.25;5027199;28;20615;-80
2023/06/16 06:05:32;;;;;;;9.23;7.25;;;;;;;19.68;79.86;-18556.25;5026053;28;20530;-78
2023/06/16 06:07:57;;;;;;;11.23;6.72;;;;;;;19.76;77.71;-18558.41;5025507;28;20463;-79
2023/06/16 06:10:23;;;;;;;9.35;6.85;;;;;;;19.85;74.47;-18560.88;5025337;28;20049;-79
2023/06/16 06:12:49;;;;;;;11.00;7.60;;;;;;;19.89;73.90;-18561.81;5025461;28;20045;-83
2023/06/16 06:15:15;;;;;;;10.75;7.68;;;;;;;19.93;74.19;-18563.06;5032901;28;20033;-81
2023/06/16 06:17:40;;;;;;;10.15;7.18;;;;;;;19.96;69.68;-18563.88;5027175;28;20382;-80
2023/06/16 06:20:06;;;;;;;9.10;6.93;;;;;;;20.17;70.56;-18569.31;5028081;28;20132;-84
2023/06/16 06:22:32;;;;;;;9.48;6.40;;;;;;;20.35;69.25;-18574.09;5025011;28;20140;-84
2023/06/16 06:24:59;;;;;;;8.82;7.32;;;;;;;20.31;66.88;-18573.00;5028709;28;20037;-82
2023/06/16 06:27:24;;;;;;;9.40;6.78;;;;;;;20.50;67.07;-18578.28;5028370;28;21099;-81
2023/06/16 06:29:50;;;;;;;9.00;6.70;;;;;;;20.48;59.95;-18577.63;5032976;28;20041;-80
2023/06/16 06:32:15;;;;;;;9.40;5.90;;;;;;;20.42;63.48;-18575.97;5028532;28;20662;-82
2023/06/16 06:34:40;;;;;;;8.55;5.82;;;;;;;20.62;63.82;-18581.28;5024180;28;20052;-81
2023/06/16 06:37:06;;;;;;;8.30;6.10;;;;;;;20.75;63.26;-18584.69;5027709;28;20025;-80
2023/06/16 06:39:31;;;;;;;6.85;5.00;;;;;;;20.78;56.43;-18585.66;5026040;28;20555;-82
2023/06/16 06:41:57;;;;;;;7.90;5.15;;;;;;;20.83;56.34;-18587.00;5027946;28;20034;-81
2023/06/16 06:44:22;;;;;;;7.88;5.53;;;;;;;20.86;63.87;-18587.81;5027376;28;20041;-80
2023/06/16 06:46:48;;;;;;;8.60;5.78;;;;;;;20.83;65.24;-18587.00;5023870;28;20119;-82
2023/06/16 06:49:14;;;;;;;8.32;5.95;;;;;;;20.65;62.36;-18582.09;5027175;28;20140;-82
2023/06/16 06:51:40;;;;;;;10.52;6.22;;;;;;;20.94;60.20;-18589.88;5026384;28;20120;-81
2023/06/16 06:54:06;;;;;;;9.95;5.90;;;;;;;21.09;57.56;-18593.81;5024623;28;20029;-81
2023/06/16 06:56:31;;;;;;;7.28;5.32;;;;;;;21.26;57.54;-18598.28;5025366;28;20033;-81
2023/06/16 06:58:57;;;;;;;6.55;4.82;;;;;;;21.57;56.07;-18606.59;5026239;28;20401;-81
2023/06/16 07:01:22;;;;;;;7.78;5.68;;;;;;;21.57;52.95;-18606.72;5026483;28;20128;-81
2023/06/16 07:03:47;;;;;;;8.45;5.60;;;;;;;21.67;53.77;-18609.31;5026764;28;20073;-84
2023/06/16 07:06:13;;;;;;;6.63;5.50;;;;;;;21.62;57.34;-18607.94;5028303;28;20111;-80
2023/06/16 07:08:38;;;;;;;7.18;5.50;;;;;;;21.79;55.50;-18612.56;5026940;28;20033;-82
2023/06/16 07:11:03;;;;;;;8.30;4.72;;;;;;;21.71;52.36;-18610.25;5026646;28;20128;-83
2023/06/16 07:13:29;;;;;;;6.50;5.53;;;;;;;21.89;53.89;-18615.00;5027460;28;20053;-82
2023/06/16 07:15:54;;;;;;;7.65;5.65;;;;;;;21.59;54.00;-18607.13;5026405;28;20041;-82
2023/06/16 07:18:20;;;;;;;8.82;5.10;;;;;;;21.84;54.60;-18613.78;5023819;28;20497;-80
2023/06/16 07:20:45;;;;;;;8.23;4.63;;;;;;;22.09;51.88;-18620.44;5025178;28;20046;-85
2023/06/16 07:23:10;;;;;;;7.32;4.82;;;;;;;22.28;49.66;-18625.63;5026389;28;20481;-80
2023/06/16 07:25:36;;;;;;;7.20;4.88;;;;;;;22.11;47.74;-18620.84;5026600;28;20037;-79
2023/06/16 07:28:03;;;;;;;5.47;4.38;;;;;;;22.34;50.39;-18627.09;5026558;28;20091;-80
2023/06/16 07:30:29;;;;;;;7.50;4.80;;;;;;;22.25;47.99;-18624.81;5024628;28;20042;-81
2023/06/16 07:32:55;;;;;;;6.53;3.88;;;;;;;22.51;47.29;-18631.72;5026423;28;20041;-80
2023/06/16 07:35:20;;;;;;;6.82;4.63;;;;;;;22.63;47.17;-18634.84;5026958;28;20056;-80
2023/06/16 07:37:46;;;;;;;5.53;3.88;;;;;;;22.78;45.79;-18638.66;5040862;23;20155;-80
2023/06/16 07:40:13;;;;;;;5.05;3.30;;;;;;;22.81;43.67;-18639.47;5021863;28;20407;-79
2023/06/16 07:42:40;;;;;;;5.07;3.70;;;;;;;22.91;42.66;-18642.19;5019195;28;20480;-80
2023/06/16 07:45:06;;;;;;;7.95;3.65;;;;;;;23.18;43.39;-18649.38;5016823;28;20515;-79
2023/06/16 07:47:31;;;;;;;6.28;4.40;;;;;;;23.16;44.93;-18648.97;5022705;28;20034;-79
2023/06/16 07:49:56;;;;;;;7.35;4.60;;;;;;;23.29;44.51;-18652.22;5032799;28;20056;-79
2023/06/16 07:52:22;;;;;;;6.82;4.05;;;;;;;23.15;43.46;-18648.56;5041105;28;20052;-79
2023/06/16 07:54:47;;;;;;;7.47;4.55;;;;;;;23.18;42.57;-18649.38;5032428;28;20053;-80
2023/06/16 07:57:12;;;;;;;7.97;4.40;;;;;;;23.08;42.60;-18646.66;5033756;28;20038;-80
2023/06/16 07:59:38;;;;;;;8.02;4.10;;;;;;;23.15;43.79;-18648.69;5037816;28;20072;-79
2023/06/16 08:02:03;;;;;;;6.80;4.07;;;;;;;23.17;41.79;-18649.25;5040027;28;20037;-79
2023/06/16 08:04:29;;;;;;;9.30;4.70;;;;;;;23.50;42.42;-18657.91;5041201;28;20462;-78
2023/06/16 08:06:58;;;;;;;7.10;4.53;;;;;;;23.79;41.92;-18665.50;5037089;28;20041;-80
2023/06/16 08:09:23;;;;;;;7.22;5.32;;;;;;;23.89;41.30;-18668.22;5038695;28;20116;-80
2023/06/16 08:11:49;;;;;;;10.00;5.15;;;;;;;23.83;42.92;-18666.72;5045708;28;20061;-81
2023/06/16 08:14:15;;;;;;;8.70;4.63;;;;;;;23.92;42.60;-18668.91;5040948;28;20052;-80
2023/06/16 08:16:40;;;;;;;6.88;4.55;;;;;;;23.74;40.32;-18664.28;5041652;28;20547;-78
2023/06/16 08:19:08;;;;;;;8.13;4.78;;;;;;;23.88;40.74;-18667.97;5037457;28;20033;-79
2023/06/16 08:21:33;;;;;;;8.65;5.32;;;;;;;23.90;41.01;-18668.50;5044138;28;20052;-80
2023/06/16 08:23:59;;;;;;;7.28;4.93;;;;;;;24.02;41.13;-18671.63;5049977;28;20439;-79
2023/06/16 08:26:24;;;;;;;6.25;4.13;;;;;;;24.24;40.38;-18677.44;5038983;28;20045;-81
2023/06/16 08:28:50;;;;;;;5.28;3.60;;;;;;;24.53;38.29;-18685.31;5042664;28;20045;-81
2023/06/16 08:31:15;;;;;;;6.70;4.13;;;;;;;24.44;38.04;-18682.88;5038447;28;20359;-79
2023/06/16 08:33:41;;;;;;;6.30;3.70;;;;;;;24.47;38.45;-18683.69;5051715;28;20041;-79
2023/06/16 08:36:06;;;;;;;6.57;3.60;;;;;;;24.54;38.54;-18685.56;5053794;28;20044;-80
2023/06/16 08:38:32;;;;;;;5.93;3.47;;;;;;;24.57;37.70;-18686.13;5064328;28;20395;-79
2023/06/16 08:40:59;;;;;;;6.82;3.25;;;;;;;24.71;37.60;-18689.91;5044831;28;20044;-80
2023/06/16 08:43:25;;;;;;;4.88;3.00;;;;;;;24.91;36.16;-18695.31;5051389;28;20060;-79
2023/06/16 08:45:52;;;;;;;7.35;3.50;;;;;;;24.96;36.52;-18696.69;5046395;28;20052;-80
2023/06/16 08:48:18;;;;;;;10.10;3.47;;;;;;;24.92;36.26;-18695.59;5045242;28;20483;-79
2023/06/16 08:50:44;;;;;;;5.28;3.15;;;;;;;25.04;36.87;-18698.56;5052884;28;20037;-79
2023/06/16 08:53:12;;;;;;;5.13;3.15;;;;;;;25.17;34.16;-18702.09;5044107;28;20037;-80
2023/06/16 08:55:40;;;;;;;4.18;3.08;;;;;;;25.25;35.77;-18704.25;5051262;28;20095;-80
2023/06/16 08:58:08;;;;;;;6.43;3.50;;;;;;;25.34;35.47;-18706.69;5044652;28;20064;-78
2023/06/16 09:00:33;;;;;;;4.40;2.95;;;;;;;25.36;34.73;-18707.25;5040521;28;20045;-80
2023/06/16 09:02:59;;;;;;;6.93;3.22;;;;;;;25.57;34.60;-18712.66;5051177;28;20426;-80
2023/06/16 09:05:26;;;;;;;6.50;3.10;;;;;;;25.49;34.56;-18710.63;5049832;28;20037;-80
2023/06/16 09:07:51;;;;;;;6.78;3.50;;;;;;;25.56;34.78;-18712.38;5056871;28;20043;-79
2023/06/16 09:10:18;;;;;;;4.70;3.03;;;;;;;25.69;34.98;-18715.91;5055643;28;20128;-80
2023/06/16 09:12:43;;;;;;;8.73;3.30;;;;;;;25.78;33.81;-18718.19;5053434;28;20159;-80
2023/06/16 09:15:12;;;;;;;9.27;3.78;;;;;;;25.85;34.50;-18720.09;5053005;28;20037;-78
2023/06/16 09:17:39;;;;;;;6.80;3.55;;;;;;;25.87;34.68;-18720.78;5053869;28;20120;-80
2023/06/16 09:20:12;;;;;;;5.75;3.00;;;;;;;25.94;34.23;-18722.41;5053043;28;20047;-78
2023/06/16 09:22:38;;;;;;;5.93;3.17;;;;;;;25.94;33.84;-18722.41;5054559;28;20101;-80
2023/06/16 09:25:05;;;;;;;4.55;3.10;;;;;;;26.06;33.48;-18725.63;5053874;28;20036;-79
2023/06/16 09:27:49;;;;;;;4.15;2.90;;;;;;;26.07;33.17;-18726.06;5053744;28;20071;-80
2023/06/16 09:30:21;;;;;;;5.32;2.70;;;;;;;26.25;33.78;-18730.78;5047351;28;20045;-80
2023/06/16 09:32:51;;;;;;;7.65;3.25;;;;;;;26.25;32.99;-18730.78;5055975;28;20043;-80
2023/06/16 09:35:25;;;;;;;7.32;3.03;;;;;;;26.40;33.40;-18734.69;5064025;28;20048;-79
2023/06/16 09:37:55;;;;;;;6.80;3.30;;;;;;;26.65;32.01;-18741.31;5049677;28;20037;-79
2023/06/16 09:40:26;;;;;;;5.28;3.50;;;;;;;26.68;33.01;-18742.13;5054241;28;20041;-80
2023/06/16 09:42:51;;;;;;;8.20;3.63;;;;;;;26.75;33.40;-18744.03;5053431;28;20037;-80
2023/06/16 09:45:18;;;;;;;5.93;3.60;;;;;;;27.03;33.41;-18751.19;5054259;28;20428;-80
2023/06/16 09:47:45;;;;;;;5.00;3.42;;;;;;;26.92;33.84;-18748.47;5050583;28;20132;-81
2023/06/16 09:50:18;;;;;;;5.22;3.05;;;;;;;26.85;34.19;-18746.59;5052746;28;20056;-80
2023/06/16 09:52:45;;;;;;;4.70;3.08;;;;;;;26.91;33.10;-18748.22;5051474;28;20070;-79
2023/06/16 09:55:12;;;;;;;4.85;3.25;;;;;;;26.73;32.30;-18743.34;5051195;28;20033;-78
2023/06/16 09:57:43;;;;;;;6.30;3.13;;;;;;;26.85;32.63;-18746.59;5047061;28;20724;-80
2023/06/16 10:00:15;;;;;;;5.22;3.35;;;;;;;27.07;32.96;-18752.25;5054830;28;20052;-80
2023/06/16 10:02:49;;;;;;;8.68;3.70;;;;;;;26.99;32.12;-18750.25;5054596;28;20040;-80
2023/06/16 10:05:18;;;;;;;8.65;3.90;;;;;;;27.09;31.42;-18752.94;5049259;28;20132;-80
2023/06/16 10:07:48;;;;;;;6.15;3.40;;;;;;;27.06;32.04;-18752.13;5052183;28;20104;-81
2023/06/16 10:10:14;;;;;;;6.13;3.38;;;;;;;27.21;32.60;-18756.06;5051286;28;20048;-80
2023/06/16 10:12:46;;;;;;;4.35;3.35;;;;;;;27.33;31.73;-18759.28;5053030;28;20036;-80
2023/06/16 10:15:23;;;;;;;5.43;3.20;;;;;;;27.52;32.55;-18764.28;5051823;28;20123;-78
2023/06/16 10:17:50;;;;;;;5.20;3.05;;;;;;;27.53;32.22;-18764.41;5050678;28;20033;-78
2023/06/16 10:20:19;;;;;;;4.25;3.10;;;;;;;27.34;32.19;-18759.56;5049896;28;20051;-80
2023/06/16 10:22:46;;;;;;;7.97;3.47;;;;;;;27.23;31.41;-18756.72;5050085;28;20123;-79
2023/06/16 10:25:11;;;;;;;4.80;3.35;;;;;;;27.34;30.86;-18759.56;5048071;28;20091;-80
2023/06/16 10:27:40;;;;;;;4.10;2.95;;;;;;;27.39;31.84;-18760.91;5044455;28;20037;-80
2023/06/16 10:30:09;;;;;;;8.20;3.65;;;;;;;27.60;31.96;-18766.44;5050689;28;20583;-79
2023/06/16 10:32:35;;;;;;;6.57;3.08;;;;;;;27.71;31.17;-18769.16;5061664;28;20037;-80
2023/06/16 10:35:00;;;;;;;5.72;3.42;;;;;;;27.80;29.34;-18771.59;5047724;28;20101;-80
2023/06/16 10:37:29;;;;;;;4.80;2.97;;;;;;;27.58;30.22;-18765.78;5048709;28;20037;-79
2023/06/16 10:39:56;;;;;;;6.55;3.25;;;;;;;27.72;30.86;-18769.56;5045368;28;20408;-80
2023/06/16 10:42:22;;;;;;;5.13;3.05;;;;;;;27.79;30.57;-18771.31;5047072;28;20041;-79
2023/06/16 10:44:50;;;;;;;4.90;3.17;;;;;;;27.85;29.91;-18772.94;5049997;28;20396;-80
2023/06/16 10:47:15;;;;;;;5.78;3.00;;;;;;;28.08;29.62;-18779.00;5046976;28;20050;-79
2023/06/16 10:49:50;;;;;;;4.63;2.72;;;;;;;28.28;29.11;-18784.25;5047457;28;20178;-79
2023/06/16 10:52:17;;;;;;;5.45;3.22;;;;;;;28.34;29.05;-18785.88;5042253;28;20786;-80
2023/06/16 10:54:44;;;;;;;7.63;3.42;;;;;;;28.56;29.76;-18791.81;5049182;28;20071;-81
2023/06/16 10:57:12;;;;;;;4.70;3.40;;;;;;;28.47;29.37;-18789.38;5046701;28;20029;-79
2023/06/16 10:59:56;;;;;;;4.72;3.42;;;;;;;28.69;28.48;-18795.19;5044317;28;20120;-79
2023/06/16 11:02:24;;;;;;;5.70;3.28;;;;;;;28.51;27.44;-18790.34;5044991;28;20048;-80
2023/06/16 11:05:22;;;;;;;7.18;3.47;;;;;;;28.41;28.37;-18787.75;5052864;28;20045;-80
2023/06/16 11:07:58;;;;;;;6.88;3.17;;;;;;;28.53;28.72;-18791.00;5027643;28;20068;-81
2023/06/16 11:10:24;;;;;;;5.05;3.38;;;;;;;28.34;27.95;-18785.88;5049258;28;20128;-80
2023/06/16 11:12:50;;;;;;;6.18;3.42;;;;;;;28.13;28.01;-18780.34;5037482;28;20558;-81
2023/06/16 11:15:18;;;;;;;7.35;3.47;;;;;;;28.26;28.46;-18783.84;5049179;28;20067;-81
2023/06/16 11:17:44;;;;;;;3.92;2.97;;;;;;;28.54;27.56;-18791.13;5049833;28;20365;-79
2023/06/16 11:20:12;;;;;;;5.97;3.33;;;;;;;28.73;28.19;-18796.13;5054517;28;20383;-81